Impacts TAF Board INFO
FOR SITUATIONAL AWARENESS. NOT TO BE USED FOR FLIGHT PLANNING PURPOSES.
IDs:

KSEA - Seattle-Tacoma Intl, WA, US

Issued at 1132 UTC 21 May 2018
Updated at 1313 UTC 21 May 2018
Potential Impact None Slight Moderate High
Time1253Z 21/14Z 21/15Z 21/16Z 21/17Z 21/18Z 21/19Z 21/20Z 21/21Z 21/22Z 21/23Z 22/00Z 22/01Z 22/02Z>>
Type OBS PRVL
  [TEMP]  
PRVL
  [TEMP]  
PRVL PRVL PRVL PRVL PRVL PRVL PRVL PRVL PRVL PRVL PRVL
VIS 10 >6 >6 >6 >6 >6 >6 >6 >6 >6 >6 >6 >6 >6
CIG 27 50
  [22]  
50
  [22]  
50 50 50 50 -- -- -- -- -- -- --
Cover OVC BKN
  [OVC]  
BKN
  [OVC]  
BKN BKN BKN BKN SCT SCT SCT SCT SCT SCT SCT
FltCat MVFR VFR
  [MVFR]  
VFR
  [MVFR]  
VFR VFR VFR VFR VFR VFR VFR VFR VFR VFR VFR
WX -- --
  [--]  
--
  [--]  
-- -- -- -- -- -- -- -- -- -- --
WDir 20 VRB
[VRB]
VRB
[VRB]
VRB VRB 300 300 320 320 320 320 320 320 320
WSpd 5 4
  [4]  
4
  [4]  
4 4 5 5 7 7 7 7 7 7 7
WGst -- --
  [--]  
--
  [--]  
-- -- -- -- -- -- -- -- -- -- --

Raw TAF
KSEA 211132Z 2112/2218 VRB04KT P6SM SCT025 BKN050
  TEMPO 2112/2116 BKN022 OVC045
  FM211800 30005KT P6SM SCT025 BKN050
  FM212000 32007KT P6SM SCT050 SCT250
  FM220600 01006KT P6SM SKC


Raw METAR
KSEA 211253Z 02005KT 10SM SCT016 OVC027 12/09 A3007 RMK AO2 SLP186 T01220089 $
KSEA 211153Z 01006KT 10SM BKN016 OVC025 12/09 A3006 RMK AO2 SLP185 7//// T01220094 10139 20122 55000 $
KSEA 211053Z 01006KT 10SM BKN022 OVC048 13/10 A3005 RMK AO2 SLP182 T01280094 $

METAR Board
Radar Display
Forecast Discussion

FOR SITUATIONAL AWARENESS. NOT TO BE USED FOR FLIGHT PLANNING PURPOSES.